createdAt,value
2023-05-09T00:02:06.257Z,16.90
2023-05-09T00:04:34.088Z,16.90
2023-05-09T00:07:01.405Z,16.90
2023-05-09T00:09:28.608Z,16.90
2023-05-09T00:11:55.855Z,16.90
2023-05-09T00:14:24.825Z,16.90
2023-05-09T00:16:53.589Z,16.90
2023-05-09T00:19:20.854Z,16.80
2023-05-09T00:21:48.033Z,16.80
2023-05-09T00:24:15.289Z,16.90
2023-05-09T00:26:42.487Z,16.80
2023-05-09T00:29:10.271Z,16.80
2023-05-09T00:31:37.509Z,16.80
2023-05-09T00:34:04.714Z,16.80
2023-05-09T00:36:32.702Z,16.80
2023-05-09T00:38:59.890Z,16.80
2023-05-09T00:41:27.126Z,16.80
2023-05-09T00:43:54.453Z,16.80
2023-05-09T00:46:21.954Z,16.80
2023-05-09T00:48:49.309Z,16.70
2023-05-09T00:51:16.954Z,16.70
2023-05-09T00:53:45.788Z,16.70
2023-05-09T00:56:13.702Z,16.70
2023-05-09T00:58:41.336Z,16.70
2023-05-09T01:01:08.721Z,16.70
2023-05-09T01:03:36.579Z,16.70
2023-05-09T01:06:29.430Z,16.70
2023-05-09T01:09:03.686Z,16.60
2023-05-09T01:11:44.252Z,16.70
2023-05-09T01:14:37.624Z,16.70
2023-05-09T01:17:33.530Z,16.70
2023-05-09T01:20:26.967Z,16.70
2023-05-09T01:23:13.310Z,16.70
2023-05-09T01:25:48.997Z,16.70
2023-05-09T01:28:29.413Z,16.70
2023-05-09T01:30:57.621Z,16.70
2023-05-09T01:33:26.911Z,16.70
2023-05-09T01:35:59.800Z,16.70
2023-05-09T01:38:29.655Z,16.70
2023-05-09T01:40:59.852Z,16.70
2023-05-09T01:43:29.698Z,16.70
2023-05-09T01:45:58.478Z,16.80
2023-05-09T01:48:28.082Z,16.80
2023-05-09T01:50:57.435Z,16.80
2023-05-09T01:53:25.714Z,16.80
2023-05-09T01:55:54.069Z,16.80
2023-05-09T01:58:23.526Z,16.80
2023-05-09T02:00:51.703Z,16.70
2023-05-09T02:03:19.983Z,16.70
2023-05-09T02:05:48.566Z,16.70
2023-05-09T02:08:17.383Z,16.70
2023-05-09T02:10:46.216Z,16.70
2023-05-09T02:13:13.492Z,16.80
2023-05-09T02:15:42.136Z,16.70
2023-05-09T02:18:09.496Z,16.70
2023-05-09T02:20:36.853Z,16.70
2023-05-09T02:23:04.507Z,16.70
2023-05-09T02:25:33.701Z,16.70
2023-05-09T02:28:02.481Z,16.70
2023-05-09T02:30:45.717Z,16.60
2023-05-09T02:33:14.328Z,16.70
2023-05-09T02:35:44.462Z,16.70
2023-05-09T02:38:14.260Z,16.60
2023-05-09T02:40:44.284Z,16.60
2023-05-09T02:43:11.633Z,16.60
2023-05-09T02:45:38.931Z,16.60
2023-05-09T02:48:08.770Z,16.50
2023-05-09T02:50:38.243Z,16.50
2023-05-09T02:53:06.167Z,16.40
2023-05-09T02:55:33.578Z,16.40
2023-05-09T02:58:12.760Z,16.30
2023-05-09T03:00:42.969Z,16.30
2023-05-09T03:03:10.759Z,16.30
2023-05-09T03:05:38.258Z,16.30
2023-05-09T03:08:05.668Z,16.20
2023-05-09T03:10:34.664Z,16.20
2023-05-09T03:13:02.120Z,16.10
2023-05-09T03:15:32.089Z,16.10
2023-05-09T03:18:00.440Z,16.10
2023-05-09T03:20:27.824Z,16.00
2023-05-09T03:22:58.434Z,16.00
2023-05-09T03:25:26.385Z,16.00
2023-05-09T03:27:53.627Z,16.00
2023-05-09T03:30:21.049Z,16.00
2023-05-09T03:32:49.978Z,15.90
2023-05-09T03:35:17.404Z,16.00
2023-05-09T03:37:44.694Z,16.00
2023-05-09T03:40:12.164Z,16.00
2023-05-09T03:42:46.697Z,16.00
2023-05-09T03:45:14.274Z,15.90
2023-05-09T03:47:42.733Z,15.90
2023-05-09T03:50:10.904Z,16.00
2023-05-09T03:52:38.240Z,16.10
2023-05-09T03:55:07.193Z,16.10
2023-05-09T03:57:36.435Z,16.10
2023-05-09T04:00:08.110Z,16.10
2023-05-09T04:02:42.369Z,16.20
2023-05-09T04:05:16.750Z,16.20
2023-05-09T04:07:44.459Z,16.20
2023-05-09T04:10:12.170Z,16.20
2023-05-09T04:12:39.483Z,16.30
2023-05-09T04:15:07.662Z,16.30
2023-05-09T04:17:35.802Z,16.30
2023-05-09T04:20:03.376Z,16.30
2023-05-09T04:22:31.114Z,16.30
2023-05-09T04:24:58.480Z,16.30
2023-05-09T04:27:27.935Z,16.30
2023-05-09T04:29:55.689Z,16.30
2023-05-09T04:32:23.271Z,16.30
2023-05-09T04:34:50.884Z,16.30
2023-05-09T04:37:23.355Z,16.20
2023-05-09T04:39:51.176Z,16.20
2023-05-09T04:42:24.657Z,16.10
2023-05-09T04:44:52.456Z,16.00
2023-05-09T04:47:21.914Z,16.00
2023-05-09T04:49:49.157Z,15.90
2023-05-09T04:52:17.053Z,15.80
2023-05-09T04:54:44.325Z,15.80
2023-05-09T04:57:18.093Z,15.80
2023-05-09T04:59:50.884Z,15.80
2023-05-09T05:02:19.428Z,15.80
2023-05-09T05:04:48.216Z,15.80
2023-05-09T05:07:16.228Z,15.80
2023-05-09T05:09:44.580Z,15.90
2023-05-09T05:12:12.021Z,15.90
2023-05-09T05:14:40.935Z,16.00
2023-05-09T05:17:10.334Z,16.10
2023-05-09T05:19:37.497Z,16.20
2023-05-09T05:22:06.610Z,16.20
2023-05-09T05:24:36.194Z,16.30
2023-05-09T05:27:03.477Z,16.40
2023-05-09T05:29:30.987Z,16.50
2023-05-09T05:31:58.260Z,16.70
2023-05-09T05:34:25.554Z,16.80
2023-05-09T05:36:52.931Z,16.90
2023-05-09T05:39:20.646Z,16.90
2023-05-09T05:41:48.924Z,16.90
2023-05-09T05:44:17.220Z,16.90
2023-05-09T05:46:44.986Z,16.90
2023-05-09T05:49:12.519Z,16.80
2023-05-09T05:51:39.828Z,16.80
2023-05-09T05:54:09.118Z,16.80
2023-05-09T05:56:37.208Z,16.80
2023-05-09T05:59:04.681Z,16.70
2023-05-09T06:01:31.886Z,16.60
2023-05-09T06:03:59.276Z,16.50
2023-05-09T06:06:29.659Z,16.50
2023-05-09T06:08:57.456Z,16.40
2023-05-09T06:11:24.792Z,16.40
2023-05-09T06:13:52.087Z,16.40
2023-05-09T06:16:20.683Z,16.30
2023-05-09T06:18:53.411Z,16.30
2023-05-09T06:21:23.166Z,16.20
2023-05-09T06:24:07.707Z,16.10
2023-05-09T06:26:36.389Z,16.20
2023-05-09T06:29:06.300Z,16.20
2023-05-09T06:31:38.781Z,16.20
2023-05-09T06:34:06.703Z,16.30
2023-05-09T06:36:34.748Z,16.30
2023-05-09T06:39:01.995Z,16.30
2023-05-09T06:41:29.320Z,16.30
2023-05-09T06:43:56.727Z,16.30
2023-05-09T06:46:24.047Z,16.20
2023-05-09T06:48:51.294Z,16.30
2023-05-09T06:51:18.603Z,16.30
2023-05-09T06:53:45.758Z,16.30
2023-05-09T06:56:13.810Z,16.30
2023-05-09T06:58:41.139Z,16.20
2023-05-09T07:01:08.441Z,16.20
2023-05-09T07:03:35.777Z,16.20
2023-05-09T07:06:03.039Z,16.20
2023-05-09T07:08:30.272Z,16.10
2023-05-09T07:10:57.898Z,16.10
2023-05-09T07:13:25.336Z,16.10
2023-05-09T07:15:52.616Z,16.00
2023-05-09T07:18:19.843Z,16.00
2023-05-09T07:20:47.063Z,16.00
2023-05-09T07:23:14.321Z,16.00
2023-05-09T07:25:41.736Z,15.90
2023-05-09T07:28:08.940Z,16.00
2023-05-09T07:30:36.178Z,15.90
2023-05-09T07:33:03.719Z,16.00
2023-05-09T07:35:31.398Z,16.00
2023-05-09T07:37:58.568Z,16.00
2023-05-09T07:40:26.123Z,16.10
2023-05-09T07:42:54.986Z,16.10
2023-05-09T07:45:23.872Z,16.10
2023-05-09T07:47:51.291Z,16.20
2023-05-09T07:50:18.613Z,16.20
2023-05-09T07:52:45.819Z,16.20
2023-05-09T07:55:13.171Z,16.30
2023-05-09T07:57:40.705Z,16.30
2023-05-09T08:00:08.955Z,16.30
2023-05-09T08:02:45.226Z,16.30
2023-05-09T08:05:13.899Z,16.40
2023-05-09T08:07:41.370Z,16.40
2023-05-09T08:10:09.544Z,16.40
2023-05-09T08:12:36.837Z,16.40
2023-05-09T08:15:04.570Z,16.30
2023-05-09T08:17:31.761Z,16.40
2023-05-09T08:19:58.957Z,16.40
2023-05-09T08:22:26.154Z,16.40
2023-05-09T08:24:53.335Z,16.40
2023-05-09T08:27:20.602Z,16.40
2023-05-09T08:29:47.943Z,16.40
2023-05-09T08:32:15.482Z,16.30
2023-05-09T08:34:42.793Z,16.30
2023-05-09T08:37:10.428Z,16.30
2023-05-09T08:39:38.639Z,16.30
2023-05-09T08:42:09.146Z,16.30
2023-05-09T08:44:36.608Z,16.30
2023-05-09T08:47:04.815Z,16.40
2023-05-09T08:49:33.328Z,16.40
2023-05-09T08:52:01.227Z,16.40
2023-05-09T08:54:29.918Z,16.40
2023-05-09T08:56:57.820Z,16.40
2023-05-09T08:59:26.488Z,16.30
2023-05-09T09:01:54.669Z,16.30
2023-05-09T09:04:22.422Z,16.30
2023-05-09T09:06:51.707Z,16.20
2023-05-09T09:09:20.233Z,16.20
2023-05-09T09:11:48.165Z,16.20
2023-05-09T09:14:27.577Z,16.30
2023-05-09T09:16:57.111Z,16.30
2023-05-09T09:19:30.318Z,16.40
2023-05-09T09:22:00.314Z,16.40
2023-05-09T09:24:27.562Z,16.30
2023-05-09T09:26:54.753Z,16.30
2023-05-09T09:29:22.897Z,16.40
2023-05-09T09:31:54.932Z,16.40
2023-05-09T09:34:23.660Z,16.40
2023-05-09T09:36:52.719Z,16.50
2023-05-09T09:39:21.614Z,16.50
2023-05-09T09:41:49.027Z,16.50
2023-05-09T09:44:18.046Z,16.50
2023-05-09T09:46:55.821Z,16.50
2023-05-09T09:49:25.144Z,16.50
2023-05-09T09:51:53.324Z,16.60
2023-05-09T09:54:20.848Z,16.60
2023-05-09T09:56:50.420Z,16.50
2023-05-09T09:59:19.283Z,16.50
2023-05-09T10:02:06.631Z,16.50
2023-05-09T10:04:41.298Z,16.50
2023-05-09T10:07:13.557Z,16.40
2023-05-09T10:09:43.789Z,16.50
2023-05-09T10:12:11.864Z,16.40
2023-05-09T10:14:42.487Z,16.50
2023-05-09T10:17:14.063Z,16.60
2023-05-09T10:19:45.892Z,16.50
2023-05-09T10:22:16.551Z,16.60
2023-05-09T10:24:46.431Z,16.60
2023-05-09T10:27:14.774Z,16.60
2023-05-09T10:29:46.340Z,16.60
2023-05-09T10:32:20.508Z,16.60
2023-05-09T10:34:51.285Z,16.60
2023-05-09T10:37:20.182Z,16.60
2023-05-09T10:39:53.040Z,16.60
2023-05-09T10:42:20.860Z,16.70
2023-05-09T10:44:48.367Z,16.60
2023-05-09T10:47:16.228Z,16.60
2023-05-09T10:49:44.622Z,16.60
2023-05-09T10:52:12.410Z,16.50
2023-05-09T10:54:39.671Z,16.60
2023-05-09T10:57:10.057Z,16.60
2023-05-09T10:59:40.141Z,16.70
2023-05-09T11:02:15.949Z,16.70
2023-05-09T11:04:44.239Z,16.70
2023-05-09T11:07:26.223Z,16.70
2023-05-09T11:10:07.130Z,16.60
2023-05-09T11:12:58.986Z,16.60
2023-05-09T11:15:27.868Z,16.60
2023-05-09T11:18:10.152Z,16.60
2023-05-09T11:20:44.272Z,16.70
2023-05-09T11:23:17.225Z,16.70
2023-05-09T11:25:47.752Z,16.60
2023-05-09T11:28:32.815Z,16.70
2023-05-09T11:31:14.356Z,16.70
2023-05-09T11:33:43.448Z,16.70
2023-05-09T11:36:29.224Z,16.80
2023-05-09T11:39:08.245Z,16.80
2023-05-09T11:41:43.742Z,16.90
2023-05-09T11:44:19.757Z,16.90
2023-05-09T11:46:48.763Z,16.80
2023-05-09T14:50:33.434Z,16.90
2023-05-09T14:53:01.151Z,16.90
2023-05-09T14:55:28.387Z,17.00
2023-05-09T14:57:56.107Z,17.00
2023-05-09T15:00:25.544Z,17.00
2023-05-09T15:02:53.118Z,17.00
2023-05-09T15:05:20.355Z,16.90
2023-05-09T15:07:47.538Z,17.00
2023-05-09T15:10:14.941Z,17.00
2023-05-09T15:12:44.801Z,17.10
2023-05-09T15:15:20.532Z,17.10
2023-05-09T15:17:47.988Z,17.10
2023-05-09T15:20:17.566Z,17.00
2023-05-09T15:22:49.611Z,17.00
2023-05-09T15:25:17.493Z,16.90
2023-05-09T15:27:45.098Z,16.90
2023-05-09T15:30:12.816Z,16.80
2023-05-09T15:32:42.756Z,16.80
2023-05-09T15:35:10.283Z,16.80
2023-05-09T15:37:37.710Z,16.90
2023-05-09T15:40:05.388Z,16.80
2023-05-09T15:42:32.584Z,16.70
2023-05-09T15:44:59.818Z,16.70
2023-05-09T15:47:27.074Z,16.70
2023-05-09T15:49:54.566Z,16.80
2023-05-09T15:52:21.890Z,16.80
2023-05-09T15:54:49.192Z,16.90
2023-05-09T15:57:17.536Z,16.90
2023-05-09T15:59:44.869Z,16.90
2023-05-09T16:02:12.322Z,16.90
2023-05-09T16:04:39.569Z,17.00
2023-05-09T16:07:06.880Z,17.00
2023-05-09T16:09:34.114Z,17.00
2023-05-09T16:12:01.707Z,16.90
2023-05-09T16:14:28.928Z,16.80
2023-05-09T16:16:56.160Z,16.80
2023-05-09T16:19:23.354Z,16.80
2023-05-09T16:21:50.707Z,16.80
2023-05-09T16:24:17.967Z,16.80
2023-05-09T16:26:45.213Z,16.80
2023-05-09T16:29:13.604Z,16.70
2023-05-09T16:31:40.950Z,16.70
2023-05-09T16:34:08.427Z,16.60
2023-05-09T16:36:38.648Z,16.70
2023-05-09T16:39:05.816Z,16.70
2023-05-09T16:41:33.136Z,16.70
2023-05-09T16:44:00.340Z,16.70
2023-05-09T16:46:27.552Z,16.70
2023-05-09T16:48:55.259Z,16.60
2023-05-09T16:51:22.453Z,16.60
2023-05-09T16:53:49.661Z,16.60
2023-05-09T16:56:16.951Z,16.50
2023-05-09T16:58:44.904Z,16.50
2023-05-09T17:01:12.333Z,16.50
2023-05-09T17:03:39.918Z,16.60
2023-05-09T17:06:07.415Z,16.60
2023-05-09T17:08:34.813Z,16.50
2023-05-09T17:11:01.984Z,16.50
2023-05-09T17:13:29.318Z,16.50
2023-05-09T17:15:56.881Z,16.50
2023-05-09T17:18:36.059Z,16.40
2023-05-09T17:21:05.427Z,16.40
2023-05-09T17:23:32.724Z,16.40
2023-05-09T17:26:00.066Z,16.40
2023-05-09T17:28:27.439Z,16.40
2023-05-09T17:30:54.651Z,16.40
2023-05-09T17:33:21.840Z,16.40
2023-05-09T17:35:49.948Z,16.40
2023-05-09T17:38:17.588Z,16.30
2023-05-09T17:40:45.206Z,16.20
2023-05-09T17:43:13.245Z,16.10
2023-05-09T17:45:40.464Z,16.20
2023-05-09T17:48:08.169Z,16.20
2023-05-09T17:50:35.460Z,16.20
2023-05-09T17:53:02.658Z,16.30
2023-05-09T17:55:30.318Z,16.30
2023-05-09T17:57:57.497Z,16.30
2023-05-09T18:00:24.663Z,16.30
2023-05-09T18:02:52.012Z,16.30
2023-05-09T18:05:19.364Z,16.30
2023-05-09T18:07:46.554Z,16.30
2023-05-09T18:10:13.924Z,16.30
2023-05-09T18:12:41.680Z,16.30
2023-05-09T18:15:10.314Z,16.30
2023-05-09T18:17:37.856Z,16.30
2023-05-09T18:20:06.786Z,16.20
2023-05-09T18:22:34.143Z,16.20
2023-05-09T18:25:01.916Z,16.20
2023-05-09T18:27:29.282Z,16.20
2023-05-09T18:29:56.624Z,16.20
2023-05-09T18:32:23.967Z,16.10
2023-05-09T18:34:51.628Z,16.10
2023-05-09T18:37:18.902Z,16.10
2023-05-09T18:39:46.153Z,16.10
2023-05-09T18:42:15.926Z,16.10
2023-05-09T18:44:43.628Z,16.00
2023-05-09T18:47:11.258Z,16.00
2023-05-09T18:49:38.804Z,15.90
2023-05-09T18:52:06.077Z,15.90
2023-05-09T18:54:33.286Z,15.80
2023-05-09T18:57:00.488Z,15.80
2023-05-09T18:59:27.792Z,15.80
2023-05-09T19:01:55.008Z,15.80
2023-05-09T19:04:22.229Z,15.70
2023-05-09T19:06:49.585Z,15.70
2023-05-09T19:09:16.810Z,15.70
2023-05-09T19:11:44.093Z,15.70
2023-05-09T19:14:11.261Z,15.70
2023-05-09T19:16:38.509Z,15.60
2023-05-09T19:19:05.691Z,15.60
2023-05-09T19:21:34.159Z,15.60
2023-05-09T19:24:03.655Z,15.60
2023-05-09T19:26:30.857Z,15.60
2023-05-09T19:28:58.158Z,15.60
2023-05-09T19:31:25.638Z,15.60
2023-05-09T19:33:53.152Z,15.60
2023-05-09T19:36:20.366Z,15.60
2023-05-09T19:38:47.686Z,15.60
2023-05-09T19:41:14.975Z,15.60
2023-05-09T19:43:42.242Z,15.60
2023-05-09T19:46:09.704Z,15.50
2023-05-09T19:48:36.960Z,15.50
2023-05-09T19:51:04.508Z,15.50
2023-05-09T19:53:31.758Z,15.50
2023-05-09T19:55:58.972Z,15.50
2023-05-09T19:58:27.701Z,15.50
2023-05-09T20:00:55.211Z,15.50
2023-05-09T20:03:22.928Z,15.50
2023-05-09T20:08:35.737Z,15.30
2023-05-09T20:11:03.173Z,15.30
2023-05-09T20:13:30.457Z,15.20
2023-05-09T20:15:59.178Z,15.20
2023-05-09T20:18:26.862Z,15.10
2023-05-09T20:20:54.760Z,15.10
2023-05-09T20:23:22.308Z,15.10
2023-05-09T20:25:49.720Z,15.10
2023-05-09T20:28:20.152Z,15.10
2023-05-09T20:30:47.540Z,15.10
2023-05-09T20:33:15.362Z,15.00
2023-05-09T20:35:45.422Z,15.10
2023-05-09T20:38:12.729Z,15.00
2023-05-09T20:40:41.268Z,15.00
2023-05-09T20:43:08.699Z,15.00
2023-05-09T20:45:38.992Z,15.00
2023-05-09T20:48:06.648Z,15.10
2023-05-09T20:50:33.972Z,15.10
2023-05-09T20:53:01.264Z,15.10
2023-05-09T20:55:28.577Z,15.10
2023-05-09T20:57:55.828Z,15.10
2023-05-09T21:00:23.058Z,15.10
2023-05-09T21:02:50.786Z,15.10
2023-05-09T21:05:18.115Z,15.10
2023-05-09T21:07:45.410Z,15.10
2023-05-09T21:10:12.957Z,15.10
2023-05-09T21:12:40.326Z,15.10
2023-05-09T21:15:08.166Z,15.10
2023-05-09T21:17:35.478Z,15.20
2023-05-09T21:20:02.782Z,15.10
2023-05-09T21:22:30.209Z,15.20
2023-05-09T21:24:57.454Z,15.20
2023-05-09T21:27:24.720Z,15.20
2023-05-09T21:29:51.965Z,15.20
2023-05-09T21:32:19.250Z,15.20
2023-05-09T21:34:47.980Z,15.20
2023-05-09T21:37:15.378Z,15.20
2023-05-09T21:39:42.659Z,15.20
2023-05-09T21:42:09.927Z,15.20
2023-05-09T21:44:37.155Z,15.20
2023-05-09T21:47:04.505Z,15.20
2023-05-09T21:49:31.834Z,15.10
2023-05-09T21:51:59.341Z,15.20
2023-05-09T21:54:26.613Z,15.20
2023-05-09T21:56:53.831Z,15.20
2023-05-09T21:59:22.233Z,15.10
2023-05-09T22:01:49.618Z,15.20
2023-05-09T22:04:16.904Z,15.20
2023-05-09T22:06:44.136Z,15.20
2023-05-09T22:09:11.440Z,15.20
2023-05-09T22:11:40.371Z,15.20
2023-05-09T22:14:10.120Z,15.20
2023-05-09T22:16:37.967Z,15.20
2023-05-09T22:19:05.283Z,15.20
2023-05-09T22:21:32.536Z,15.20
2023-05-09T22:23:59.747Z,15.10
2023-05-09T22:26:27.089Z,15.10
2023-05-09T22:28:56.310Z,15.10
2023-05-09T22:31:23.519Z,15.10
2023-05-09T22:33:50.861Z,15.10
2023-05-09T22:36:18.180Z,15.10
2023-05-09T22:38:45.444Z,15.10
2023-05-09T22:41:12.820Z,15.10
2023-05-09T22:43:40.138Z,15.10
2023-05-09T22:46:07.453Z,15.10
2023-05-09T22:48:34.850Z,15.10
2023-05-09T22:51:02.128Z,15.10
2023-05-09T22:53:29.384Z,15.10
2023-05-09T22:55:56.746Z,15.10
2023-05-09T22:58:23.954Z,15.10
2023-05-09T23:00:51.468Z,15.00
2023-05-09T23:03:18.971Z,15.10
2023-05-09T23:05:46.227Z,15.00
2023-05-09T23:08:13.422Z,15.00
2023-05-09T23:10:42.738Z,15.10
2023-05-09T23:13:10.056Z,15.00
2023-05-09T23:15:37.292Z,15.00
2023-05-09T23:18:04.680Z,15.00
2023-05-09T23:20:31.934Z,15.00
2023-05-09T23:22:59.115Z,15.00
2023-05-09T23:25:26.350Z,15.00
2023-05-09T23:27:54.209Z,15.00
2023-05-09T23:30:21.456Z,14.90
2023-05-09T23:32:48.625Z,15.00
2023-05-09T23:35:15.896Z,15.00
2023-05-09T23:37:43.125Z,15.00
2023-05-09T23:40:10.888Z,15.00
2023-05-09T23:42:38.118Z,15.00
2023-05-09T23:45:08.263Z,15.00
2023-05-09T23:47:35.480Z,14.90
2023-05-09T23:50:03.000Z,14.90
2023-05-09T23:52:30.420Z,14.90
2023-05-09T23:54:57.582Z,14.90
2023-05-09T23:57:24.817Z,14.90
2023-05-09T23:59:52.168Z,14.90
